createdAt,value
2018-01-17T00:00:28.444Z,4.90
2018-01-17T00:03:02.940Z,3.72
2018-01-17T00:05:37.525Z,2.95
2018-01-17T00:08:12.066Z,4.00
2018-01-17T00:10:46.647Z,3.47
2018-01-17T00:13:20.967Z,6.60
2018-01-17T00:15:55.609Z,4.35
2018-01-17T00:18:30.146Z,2.62
2018-01-17T00:21:04.673Z,5.00
2018-01-17T00:23:39.184Z,2.92
2018-01-17T00:26:13.563Z,3.90
2018-01-17T00:28:47.920Z,2.85
2018-01-17T00:31:22.391Z,2.28
2018-01-17T00:33:56.745Z,4.25
2018-01-17T00:36:31.216Z,2.15
2018-01-17T00:39:05.771Z,5.00
2018-01-17T00:41:40.279Z,2.05
2018-01-17T00:44:14.901Z,2.47
2018-01-17T00:46:49.383Z,5.35
2018-01-17T00:49:23.837Z,2.33
2018-01-17T00:51:58.468Z,2.35
2018-01-17T00:54:33.012Z,2.05
2018-01-17T00:57:07.373Z,1.52
2018-01-17T00:59:41.773Z,4.07
2018-01-17T01:02:16.140Z,4.05
2018-01-17T01:04:50.635Z,4.32
2018-01-17T01:07:25.160Z,2.75
2018-01-17T01:09:59.688Z,2.28
2018-01-17T01:12:34.074Z,2.28
2018-01-17T01:15:08.589Z,2.10
2018-01-17T01:17:43.065Z,3.60
2018-01-17T01:20:17.563Z,3.67
2018-01-17T01:22:52.093Z,1.10
2018-01-17T01:25:26.659Z,1.90
2018-01-17T01:28:01.111Z,2.40
2018-01-17T01:30:35.687Z,3.10
2018-01-17T01:33:10.397Z,3.15
2018-01-17T01:35:44.784Z,0.75
2018-01-17T01:38:19.290Z,2.62
2018-01-17T01:40:53.703Z,1.95
2018-01-17T01:43:28.180Z,3.50
2018-01-17T01:46:02.788Z,4.75
2018-01-17T01:48:37.189Z,7.22
2018-01-17T01:51:11.556Z,4.55
2018-01-17T01:53:46.201Z,4.57
2018-01-17T01:56:20.680Z,3.62
2018-01-17T01:58:55.191Z,6.37
2018-01-17T02:01:29.813Z,6.57
2018-01-17T02:04:04.355Z,4.85
2018-01-17T02:06:38.684Z,4.72
2018-01-17T02:09:13.196Z,5.57
2018-01-17T02:11:47.731Z,4.47
2018-01-17T02:14:22.061Z,5.28
2018-01-17T02:16:56.610Z,5.97
2018-01-17T02:19:30.941Z,5.03
2018-01-17T02:22:05.505Z,3.45
2018-01-17T02:24:40.102Z,3.55
2018-01-17T02:27:15.218Z,2.67
2018-01-17T02:29:49.729Z,3.20
2018-01-17T02:32:25.001Z,4.45
2018-01-17T02:34:59.520Z,2.95
2018-01-17T02:37:33.945Z,4.95
2018-01-17T02:40:20.132Z,4.97
2018-01-17T02:42:55.349Z,5.37
2018-01-17T02:45:29.653Z,4.32
2018-01-17T02:48:04.045Z,3.75
2018-01-17T02:50:38.421Z,5.82
2018-01-17T02:53:13.054Z,7.20
2018-01-17T02:55:47.541Z,4.65
2018-01-17T02:58:22.034Z,4.32
2018-01-17T03:00:56.479Z,2.47
2018-01-17T03:03:31.139Z,5.68
2018-01-17T03:06:05.524Z,6.03
2018-01-17T03:08:39.954Z,3.87
2018-01-17T03:11:14.339Z,5.35
2018-01-17T03:13:48.756Z,4.85
2018-01-17T03:16:23.205Z,5.00
2018-01-17T03:18:57.725Z,4.10
2018-01-17T03:21:32.249Z,2.47
2018-01-17T03:24:06.795Z,3.87
2018-01-17T03:26:41.304Z,3.55
2018-01-17T03:29:15.833Z,6.37
2018-01-17T03:31:50.141Z,3.40
2018-01-17T03:34:24.688Z,5.37
2018-01-17T03:36:59.200Z,3.15
2018-01-17T03:39:33.589Z,6.05
2018-01-17T03:42:08.817Z,6.05
2018-01-17T03:44:43.347Z,3.58
2018-01-17T03:47:18.596Z,2.78
2018-01-17T03:49:53.821Z,4.55
2018-01-17T03:52:28.275Z,2.78
2018-01-17T03:55:03.523Z,6.03
2018-01-17T03:57:37.850Z,2.72
2018-01-17T04:00:12.386Z,3.25
2018-01-17T04:02:46.858Z,5.35
2018-01-17T04:05:21.299Z,2.28
2018-01-17T04:07:55.774Z,6.15
2018-01-17T04:10:30.133Z,6.45
2018-01-17T04:13:05.444Z,4.93
2018-01-17T04:15:40.028Z,4.30
2018-01-17T04:18:14.382Z,4.80
2018-01-17T04:20:48.779Z,5.28
2018-01-17T04:23:23.316Z,5.40
2018-01-17T04:25:57.690Z,5.15
2018-01-17T04:28:32.899Z,5.18
2018-01-17T04:31:07.440Z,5.10
2018-01-17T04:33:41.815Z,6.25
2018-01-17T04:36:17.098Z,1.60
2018-01-17T04:38:51.619Z,2.58
2018-01-17T04:41:26.035Z,1.67
2018-01-17T04:44:01.363Z,4.30
2018-01-17T04:46:36.573Z,3.62
2018-01-17T04:49:10.914Z,4.40
2018-01-17T04:51:45.456Z,4.15
2018-01-17T04:54:19.961Z,2.78
2018-01-17T04:56:54.372Z,1.23
2018-01-17T04:59:28.792Z,4.37
2018-01-17T05:02:04.060Z,5.57
2018-01-17T05:04:38.390Z,3.12
2018-01-17T05:07:13.005Z,6.65
2018-01-17T05:09:48.100Z,6.35
2018-01-17T05:12:22.552Z,3.10
2018-01-17T05:14:56.944Z,6.28
2018-01-17T05:17:31.372Z,5.62
2018-01-17T05:20:06.665Z,5.10
2018-01-17T05:22:41.176Z,2.92
2018-01-17T05:25:15.541Z,6.28
2018-01-17T05:27:50.683Z,2.50
2018-01-17T05:30:25.177Z,7.25
2018-01-17T05:32:59.863Z,7.37
2018-01-17T05:35:34.197Z,5.90
2018-01-17T05:38:08.617Z,8.50
2018-01-17T05:40:43.821Z,7.10
2018-01-17T05:43:18.268Z,6.70
2018-01-17T05:45:52.769Z,7.62
2018-01-17T05:48:28.032Z,5.62
2018-01-17T05:51:02.529Z,10.00
2018-01-17T05:53:36.869Z,8.35
2018-01-17T05:56:11.328Z,8.15
2018-01-17T05:58:47.027Z,4.47
2018-01-17T06:01:21.568Z,6.05
2018-01-17T06:03:55.973Z,5.43
2018-01-17T06:06:31.174Z,3.80
2018-01-17T06:09:05.703Z,4.00
2018-01-17T06:11:40.263Z,9.15
2018-01-17T06:14:14.618Z,5.70
2018-01-17T06:16:49.185Z,9.43
2018-01-17T06:19:23.772Z,10.40
2018-01-17T06:21:58.369Z,6.30
2018-01-17T06:24:32.746Z,8.57
2018-01-17T06:27:07.985Z,10.30
2018-01-17T06:29:42.415Z,6.75
2018-01-17T06:32:16.727Z,6.12
2018-01-17T06:34:51.124Z,9.50
2018-01-17T06:37:25.633Z,7.18
2018-01-17T06:40:00.090Z,9.85
2018-01-17T06:42:34.486Z,9.98
2018-01-17T06:45:08.983Z,7.43
2018-01-17T06:47:43.533Z,12.02
2018-01-17T06:50:18.009Z,8.88
2018-01-17T06:52:52.595Z,9.60
2018-01-17T06:55:27.073Z,5.90
2018-01-17T06:58:02.340Z,8.07
2018-01-17T07:00:37.173Z,10.40
2018-01-17T07:03:12.288Z,7.80
2018-01-17T07:05:47.545Z,9.13
2018-01-17T07:08:22.787Z,10.15
2018-01-17T07:10:57.273Z,10.32
2018-01-17T07:13:31.996Z,10.32
2018-01-17T07:16:06.461Z,9.10
2018-01-17T07:18:40.981Z,5.18
2018-01-17T07:21:15.477Z,6.05
2018-01-17T07:23:50.039Z,11.23
2018-01-17T07:26:24.449Z,13.35
2018-01-17T07:28:58.967Z,6.45
2018-01-17T07:31:34.294Z,8.20
2018-01-17T07:34:09.617Z,8.43
2018-01-17T07:36:44.183Z,6.40
2018-01-17T07:39:18.634Z,7.72
2018-01-17T07:41:53.085Z,9.98
2018-01-17T07:44:27.624Z,9.57
2018-01-17T07:47:02.093Z,7.30
2018-01-17T07:49:36.482Z,9.52
2018-01-17T07:52:10.976Z,7.78
2018-01-17T07:54:45.592Z,9.25
2018-01-17T07:57:19.948Z,7.12
2018-01-17T07:59:54.473Z,9.23
2018-01-17T08:02:29.017Z,8.60
2018-01-17T08:05:04.211Z,4.53
2018-01-17T08:07:39.431Z,9.77
2018-01-17T08:10:14.684Z,10.30
2018-01-17T08:12:49.071Z,7.32
2018-01-17T08:15:23.417Z,6.30
2018-01-17T08:17:57.911Z,8.43
2018-01-17T08:20:33.224Z,7.95
2018-01-17T08:23:07.590Z,5.60
2018-01-17T08:25:42.823Z,7.60
2018-01-17T08:28:18.183Z,6.78
2018-01-17T08:30:52.619Z,3.15
2018-01-17T08:33:27.791Z,9.35
2018-01-17T08:36:02.368Z,5.22
2018-01-17T08:38:36.878Z,6.95
2018-01-17T08:41:11.461Z,6.22
2018-01-17T08:43:45.946Z,7.22
2018-01-17T08:46:21.251Z,9.35
2018-01-17T08:48:56.410Z,7.00
2018-01-17T08:51:30.848Z,7.70
2018-01-17T08:54:05.212Z,2.53
2018-01-17T08:56:40.518Z,6.18
2018-01-17T08:59:15.080Z,5.95
2018-01-17T09:01:49.434Z,5.82
2018-01-17T09:04:23.796Z,6.07
2018-01-17T09:06:58.283Z,3.33
2018-01-17T09:09:32.844Z,4.32
2018-01-17T09:12:07.352Z,6.05
2018-01-17T09:14:41.885Z,7.50
2018-01-17T09:17:16.226Z,4.78
2018-01-17T09:19:50.760Z,5.85
2018-01-17T09:22:25.294Z,3.22
2018-01-17T09:24:59.929Z,2.92
2018-01-17T09:27:35.161Z,4.07
2018-01-17T09:30:09.708Z,4.60
2018-01-17T09:32:44.195Z,3.22
2018-01-17T09:35:18.527Z,3.15
2018-01-17T09:37:53.758Z,1.45
2018-01-17T09:40:28.277Z,2.53
2018-01-17T09:43:02.798Z,1.85
2018-01-17T09:45:37.348Z,2.42
2018-01-17T09:48:11.905Z,3.53
2018-01-17T09:50:46.346Z,0.80
2018-01-17T09:53:20.877Z,0.93
2018-01-17T09:55:55.340Z,1.25
2018-01-17T09:58:30.659Z,0.62
2018-01-17T10:01:05.772Z,1.20
2018-01-17T10:03:40.199Z,2.00
2018-01-17T10:06:14.587Z,1.58
2018-01-17T10:08:49.720Z,1.85
2018-01-17T10:11:24.085Z,2.40
2018-01-17T10:13:58.381Z,0.88
2018-01-17T10:16:32.808Z,1.95
2018-01-17T10:19:07.252Z,1.25
2018-01-17T10:21:41.947Z,1.50
2018-01-17T10:24:16.657Z,1.70
2018-01-17T10:26:51.908Z,1.42
2018-01-17T10:29:26.458Z,2.67
2018-01-17T10:32:00.952Z,0.90
2018-01-17T10:34:35.503Z,3.35
2018-01-17T10:37:10.030Z,2.37
2018-01-17T10:39:44.479Z,3.58
2018-01-17T10:42:18.957Z,1.40
2018-01-17T10:44:54.104Z,2.00
2018-01-17T10:47:28.676Z,2.95
2018-01-17T10:50:03.225Z,1.62
2018-01-17T10:52:37.657Z,1.58
2018-01-17T10:55:12.039Z,1.35
2018-01-17T10:57:46.520Z,2.55
2018-01-17T11:00:21.886Z,0.73
2018-01-17T11:02:56.456Z,1.85
2018-01-17T11:05:31.807Z,1.05
2018-01-17T11:08:06.337Z,2.00
2018-01-17T11:10:41.639Z,1.95
2018-01-17T11:13:16.209Z,1.95
2018-01-17T11:15:50.741Z,1.55
2018-01-17T11:18:25.245Z,1.92
2018-01-17T11:20:59.640Z,1.10
2018-01-17T11:23:34.272Z,1.95
2018-01-17T11:26:08.930Z,2.67
2018-01-17T11:28:43.320Z,1.75
2018-01-17T11:31:17.919Z,2.50
2018-01-17T11:33:52.485Z,1.95
2018-01-17T11:36:26.863Z,2.10
2018-01-17T11:39:01.459Z,1.67
2018-01-17T11:41:36.745Z,1.92
2018-01-17T11:44:11.219Z,2.67
2018-01-17T11:46:46.413Z,3.42
2018-01-17T11:49:20.785Z,1.52
2018-01-17T11:51:55.344Z,2.72
2018-01-17T11:54:29.937Z,2.92
2018-01-17T11:57:04.350Z,1.87
2018-01-17T11:59:38.987Z,2.90
2018-01-17T12:02:13.503Z,3.25
2018-01-17T12:04:48.218Z,1.10
2018-01-17T12:07:22.771Z,2.40
2018-01-17T12:09:58.219Z,1.65
2018-01-17T12:12:32.616Z,1.67
2018-01-17T12:15:07.994Z,2.10
2018-01-17T12:17:42.506Z,3.45
2018-01-17T12:20:17.073Z,3.12
2018-01-17T12:22:51.566Z,1.65
2018-01-17T12:25:26.192Z,2.17
2018-01-17T12:28:00.574Z,3.53
2018-01-17T12:30:35.136Z,2.15
2018-01-17T12:33:09.881Z,1.33
2018-01-17T12:35:45.170Z,3.28
2018-01-17T12:38:20.681Z,2.35
2018-01-17T12:40:55.125Z,2.58
2018-01-17T12:43:29.846Z,2.10
2018-01-17T12:46:06.041Z,1.20
2018-01-17T12:48:40.582Z,1.50
2018-01-17T12:51:14.968Z,2.08
2018-01-17T12:53:49.550Z,1.37
2018-01-17T12:56:24.188Z,1.75
2018-01-17T12:58:58.662Z,2.30
2018-01-17T13:01:33.219Z,1.00
2018-01-17T13:04:07.767Z,1.30
2018-01-17T13:06:42.906Z,0.90
2018-01-17T13:09:17.437Z,1.60
2018-01-17T13:11:51.971Z,1.60
2018-01-17T13:14:26.496Z,1.20
2018-01-17T13:17:01.023Z,0.85
2018-01-17T13:19:36.326Z,2.50
2018-01-17T13:22:11.620Z,2.17
2018-01-17T13:24:46.128Z,1.92
2018-01-17T13:27:20.610Z,1.50
2018-01-17T13:29:55.208Z,0.93
2018-01-17T13:32:29.726Z,1.92
2018-01-17T13:35:04.508Z,1.12
2018-01-17T13:37:38.884Z,1.80
2018-01-17T13:40:13.382Z,1.95
2018-01-17T13:42:47.803Z,1.87
2018-01-17T13:45:22.209Z,0.90
2018-01-17T13:47:57.481Z,0.80
2018-01-17T13:50:31.964Z,1.12
2018-01-17T13:53:06.495Z,1.30
2018-01-17T13:55:40.841Z,1.35
2018-01-17T13:58:15.329Z,3.53
2018-01-17T14:00:49.832Z,1.05
2018-01-17T14:03:24.220Z,1.10
2018-01-17T14:05:58.860Z,0.73
2018-01-17T14:08:34.034Z,1.70
2018-01-17T14:11:08.746Z,1.40
2018-01-17T14:13:43.169Z,1.20
2018-01-17T14:16:17.637Z,2.75
2018-01-17T14:18:53.777Z,2.80
2018-01-17T14:21:28.288Z,1.10
2018-01-17T14:24:02.760Z,1.30
2018-01-17T14:26:37.965Z,0.73
2018-01-17T14:29:12.313Z,0.50
2018-01-17T14:31:46.685Z,1.85
2018-01-17T14:34:21.276Z,0.85
2018-01-17T14:36:55.834Z,1.20
2018-01-17T14:39:30.282Z,1.10
2018-01-17T14:42:05.338Z,1.87
2018-01-17T14:44:39.659Z,1.00
2018-01-17T14:47:14.184Z,1.50
2018-01-17T14:49:49.738Z,0.60
2018-01-17T14:52:24.369Z,2.28
2018-01-17T14:54:58.967Z,1.10
2018-01-17T14:57:35.049Z,0.95
2018-01-17T15:00:17.565Z,0.50
2018-01-17T15:02:52.813Z,0.90
2018-01-17T15:05:28.036Z,0.60
2018-01-17T15:08:02.530Z,1.10
2018-01-17T15:10:37.694Z,2.00
2018-01-17T15:13:12.220Z,1.08
2018-01-17T15:15:46.710Z,1.00
2018-01-17T15:18:21.249Z,1.65
2018-01-17T15:20:55.939Z,1.05
2018-01-17T15:23:30.502Z,0.98
2018-01-17T15:26:05.711Z,2.90
2018-01-17T15:28:40.229Z,1.23
2018-01-17T15:31:14.700Z,1.73
2018-01-17T15:33:49.772Z,3.47
2018-01-17T15:36:24.305Z,3.53
2018-01-17T15:38:58.850Z,5.55
2018-01-17T15:41:34.045Z,3.25
2018-01-17T15:44:08.502Z,4.87
2018-01-17T15:46:43.084Z,1.83
2018-01-17T15:49:17.635Z,1.40
2018-01-17T15:51:52.196Z,1.02
2018-01-17T15:54:26.660Z,1.62
2018-01-17T15:57:01.068Z,3.95
2018-01-17T15:59:35.571Z,1.50
2018-01-17T16:02:10.076Z,2.40
2018-01-17T16:04:44.589Z,2.70
2018-01-17T16:07:19.005Z,3.47
2018-01-17T16:09:53.415Z,5.00
2018-01-17T16:12:28.083Z,2.65
2018-01-17T16:15:02.930Z,5.75
2018-01-17T16:17:37.380Z,4.72
2018-01-17T16:20:11.885Z,5.75
2018-01-17T16:22:46.331Z,4.55
2018-01-17T16:25:20.810Z,2.95
2018-01-17T16:27:55.485Z,5.07
2018-01-17T16:30:30.060Z,4.87
2018-01-17T16:33:04.606Z,3.85
2018-01-17T16:35:39.060Z,2.40
2018-01-17T16:38:13.578Z,6.43
2018-01-17T16:40:48.266Z,3.90
2018-01-17T16:43:23.615Z,4.75
2018-01-17T16:45:58.080Z,7.30
2018-01-17T16:48:32.597Z,6.85
2018-01-17T16:51:07.969Z,6.87
2018-01-17T16:53:42.312Z,7.93
2018-01-17T16:56:16.861Z,7.12
2018-01-17T16:58:52.125Z,5.30
2018-01-17T17:01:26.577Z,10.50
2018-01-17T17:04:00.977Z,8.25
2018-01-17T17:06:35.553Z,7.00
2018-01-17T17:09:10.146Z,4.65
2018-01-17T17:11:44.702Z,8.70
2018-01-17T17:14:19.175Z,3.25
2018-01-17T17:16:53.636Z,6.72
2018-01-17T17:19:28.152Z,6.68
2018-01-17T17:22:02.857Z,6.37
2018-01-17T17:24:37.322Z,5.70
2018-01-17T17:27:11.718Z,2.90
2018-01-17T17:29:46.488Z,4.62
2018-01-17T17:32:21.552Z,8.05
2018-01-17T17:34:55.957Z,4.03
2018-01-17T17:37:31.284Z,4.95
2018-01-17T17:40:05.704Z,6.65
2018-01-17T17:42:41.044Z,5.18
2018-01-17T17:45:15.609Z,6.47
2018-01-17T17:47:50.109Z,4.28
2018-01-17T17:50:24.645Z,5.32
2018-01-17T17:52:59.236Z,7.12
2018-01-17T17:55:34.468Z,6.18
2018-01-17T17:58:09.577Z,4.12
2018-01-17T18:00:44.008Z,7.10
2018-01-17T18:03:18.579Z,4.30
2018-01-17T18:05:53.743Z,5.57
2018-01-17T18:08:28.109Z,6.70
2018-01-17T18:11:02.542Z,4.22
2018-01-17T18:13:37.126Z,4.47
2018-01-17T18:16:11.660Z,4.68
2018-01-17T18:18:46.187Z,4.18
2018-01-17T18:21:20.558Z,4.03
2018-01-17T18:23:55.053Z,4.60
2018-01-17T18:26:30.455Z,4.72
2018-01-17T18:29:04.956Z,3.30
2018-01-17T18:31:39.520Z,3.60
2018-01-17T18:34:14.246Z,4.28
2018-01-17T18:36:48.756Z,4.12
2018-01-17T18:39:24.169Z,4.68
2018-01-17T18:41:58.676Z,4.87
2018-01-17T18:44:33.061Z,3.37
2018-01-17T18:47:07.429Z,4.18
2018-01-17T18:49:41.970Z,3.28
2018-01-17T18:52:17.181Z,3.10
2018-01-17T18:54:51.775Z,3.20
2018-01-17T18:57:26.176Z,4.22
2018-01-17T19:00:00.515Z,4.75
2018-01-17T19:02:34.981Z,4.10
2018-01-17T19:05:09.573Z,2.97
2018-01-17T19:07:44.132Z,3.33
2018-01-17T19:10:18.547Z,3.80
2018-01-17T19:12:53.121Z,3.35
2018-01-17T19:15:27.819Z,2.97
2018-01-17T19:18:02.325Z,3.45
2018-01-17T19:20:36.674Z,5.68
2018-01-17T19:23:11.137Z,3.30
2018-01-17T19:25:45.520Z,5.82
2018-01-17T19:28:20.803Z,3.67
2018-01-17T19:30:55.991Z,2.58
2018-01-17T19:33:30.522Z,3.15
2018-01-17T19:36:05.022Z,6.87
2018-01-17T19:38:39.529Z,5.25
2018-01-17T19:41:14.170Z,3.83
2018-01-17T19:43:48.624Z,3.83
2018-01-17T19:46:23.049Z,2.95
2018-01-17T19:48:58.248Z,3.83
2018-01-17T19:51:32.711Z,3.33
2018-01-17T19:54:07.263Z,3.97
2018-01-17T19:56:41.820Z,4.62
2018-01-17T19:59:16.351Z,3.62
2018-01-17T20:01:50.873Z,4.85
2018-01-17T20:04:25.369Z,5.28
2018-01-17T20:06:59.855Z,3.22
2018-01-17T20:09:34.418Z,3.45
2018-01-17T20:12:08.928Z,1.48
2018-01-17T20:14:43.537Z,2.35
2018-01-17T20:17:18.056Z,1.70
2018-01-17T20:19:52.478Z,2.95
2018-01-17T20:22:32.790Z,3.00
2018-01-17T20:25:07.264Z,2.17
2018-01-17T20:27:42.589Z,2.45
2018-01-17T20:30:16.926Z,6.53
2018-01-17T20:32:51.526Z,2.30
2018-01-17T20:35:26.063Z,2.33
2018-01-17T20:38:00.689Z,1.77
2018-01-17T20:40:35.202Z,1.20
2018-01-17T20:43:10.412Z,1.37
2018-01-17T20:45:46.344Z,2.42
2018-01-17T20:48:20.906Z,0.90
2018-01-17T20:50:55.400Z,2.33
2018-01-17T20:53:29.727Z,1.10
2018-01-17T20:56:04.400Z,2.08
2018-01-17T20:58:39.045Z,0.85
2018-01-17T21:01:13.468Z,1.80
2018-01-17T21:03:48.027Z,1.83
2018-01-17T21:06:22.505Z,1.77
2018-01-17T21:08:56.836Z,1.70
2018-01-17T21:11:33.194Z,1.80
2018-01-17T21:14:07.696Z,0.80
2018-01-17T21:16:42.304Z,1.98
2018-01-17T21:19:16.798Z,2.42
2018-01-17T21:21:51.223Z,3.05
2018-01-17T21:24:25.762Z,2.17
2018-01-17T21:27:01.507Z,2.70
2018-01-17T21:29:36.069Z,2.00
2018-01-17T21:32:10.400Z,1.75
2018-01-17T21:34:44.998Z,1.23
2018-01-17T21:37:19.513Z,1.98
2018-01-17T21:39:53.908Z,0.95
2018-01-17T21:42:34.190Z,2.25
2018-01-17T21:45:14.485Z,3.35
2018-01-17T21:47:48.934Z,1.80
2018-01-17T21:50:23.347Z,2.00
2018-01-17T21:52:57.869Z,2.10
2018-01-17T21:55:32.202Z,2.62
2018-01-17T21:58:07.456Z,2.28
2018-01-17T22:00:41.916Z,2.17
2018-01-17T22:03:16.369Z,1.95
2018-01-17T22:05:51.607Z,1.15
2018-01-17T22:08:26.845Z,1.80
2018-01-17T22:11:01.400Z,1.33
2018-01-17T22:13:35.990Z,1.12
2018-01-17T22:16:10.430Z,2.70
2018-01-17T22:18:44.759Z,1.90
2018-01-17T22:21:19.307Z,3.35
2018-01-17T22:23:53.693Z,1.02
2018-01-17T22:26:28.215Z,2.92
2018-01-17T22:29:02.534Z,0.70
2018-01-17T22:31:37.064Z,2.67
2018-01-17T22:34:11.840Z,1.35
2018-01-17T22:36:46.265Z,2.05
2018-01-17T22:39:20.648Z,1.40
2018-01-17T22:41:55.193Z,2.75
2018-01-17T22:44:29.735Z,1.83
2018-01-17T22:47:04.294Z,1.98
2018-01-17T22:49:38.934Z,2.00
2018-01-17T22:52:14.129Z,2.37
2018-01-17T22:54:49.380Z,1.25
2018-01-17T22:57:23.890Z,2.20
2018-01-17T22:59:58.442Z,2.35
2018-01-17T23:02:32.897Z,1.73
2018-01-17T23:05:07.326Z,1.80
2018-01-17T23:07:41.837Z,1.73
2018-01-17T23:10:17.591Z,1.10
2018-01-17T23:12:52.152Z,2.67
2018-01-17T23:15:26.700Z,1.95
2018-01-17T23:18:01.243Z,1.27
2018-01-17T23:20:35.588Z,2.60
2018-01-17T23:23:10.133Z,2.10
2018-01-17T23:25:44.687Z,1.40
2018-01-17T23:28:19.999Z,2.05
2018-01-17T23:30:54.587Z,1.95
2018-01-17T23:33:28.961Z,1.77
2018-01-17T23:36:03.501Z,1.77
2018-01-17T23:38:38.062Z,1.80
2018-01-17T23:41:12.435Z,1.60
2018-01-17T23:43:46.941Z,1.80
2018-01-17T23:46:21.318Z,1.90
2018-01-17T23:48:55.715Z,2.95
2018-01-17T23:51:30.206Z,3.15
2018-01-17T23:54:04.873Z,2.08
2018-01-17T23:56:40.156Z,2.72
2018-01-17T23:59:14.789Z,1.73
